Time;durP1;ratioP1;P1;durP2;ratioP2;P2;SDS_P1;SDS_P2;PMS_P1;PMS_P2;Temp;Humidity;BMP_temperature;BMP_pressure;BME280_temperature;BME280_humidity;BME280_pressure;Samples;Min_cycle;Max_cycle;Signal;HPM_P1;HPM_P2
2022/09/30 00:01:14;;;;;;;9.93;8.93;;;9.50;99.90;;;;;;6221537;22;20187;-82
2022/09/30 00:03:43;;;;;;;11.07;9.98;;;9.60;99.90;;;;;;6237063;22;20228;-82
2022/09/30 00:06:11;;;;;;;11.45;9.38;;;9.60;99.90;;;;;;6238155;22;20218;-82
2022/09/30 00:08:38;;;;;;;9.30;8.52;;;9.60;99.90;;;;;;6235096;22;20697;-82
2022/09/30 00:11:08;;;;;;;9.77;8.88;;;9.60;99.90;;;;;;6244294;22;20300;-83
2022/09/30 00:13:38;;;;;;;10.68;9.68;;;9.60;99.90;;;;;;6236306;22;20214;-83
2022/09/30 00:16:07;;;;;;;13.25;8.93;;;9.60;99.90;;;;;;6250585;22;20270;-82
2022/09/30 00:18:34;;;;;;;11.75;9.05;;;9.60;99.90;;;;;;6236331;22;20236;-83
2022/09/30 00:21:02;;;;;;;10.43;9.18;;;9.60;99.90;;;;;;6247777;22;20192;-82
2022/09/30 00:23:29;;;;;;;11.27;8.95;;;9.80;99.90;;;;;;6234872;22;20602;-82
2022/09/30 00:26:02;;;;;;;10.25;9.20;;;9.70;99.90;;;;;;6239900;23;20646;-82
2022/09/30 00:28:31;;;;;;;11.63;10.43;;;9.70;99.90;;;;;;6240149;22;20212;-82
2022/09/30 00:30:59;;;;;;;10.90;9.90;;;9.70;99.90;;;;;;6239036;22;20211;-82
2022/09/30 00:33:26;;;;;;;11.82;10.73;;;9.70;99.90;;;;;;6235482;22;20195;-82
2022/09/30 00:35:53;;;;;;;13.90;12.20;;;9.70;99.90;;;;;;6236049;22;20198;-82
2022/09/30 00:38:22;;;;;;;16.63;14.30;;;9.70;99.90;;;;;;6239007;22;20261;-82
2022/09/30 00:40:50;;;;;;;14.00;12.70;;;9.60;99.90;;;;;;6243504;22;20672;-82
2022/09/30 00:43:20;;;;;;;17.05;15.25;;;9.70;99.90;;;;;;6242063;22;20224;-82
2022/09/30 00:45:53;;;;;;;15.77;14.18;;;9.60;99.90;;;;;;6243852;22;20195;-83
2022/09/30 00:48:24;;;;;;;15.90;14.38;;;9.60;99.90;;;;;;6234034;22;20672;-82
2022/09/30 00:50:54;;;;;;;14.73;13.32;;;9.60;99.90;;;;;;6261676;22;20241;-82
2022/09/30 00:53:28;;;;;;;12.93;11.73;;;9.60;99.90;;;;;;6254022;22;20184;-83
2022/09/30 00:55:58;;;;;;;13.27;11.32;;;9.70;99.90;;;;;;6239712;22;20261;-83
2022/09/30 00:58:29;;;;;;;12.23;11.10;;;9.70;99.90;;;;;;6243166;22;20306;-82
2022/09/30 01:00:58;;;;;;;10.32;9.43;;;9.70;99.90;;;;;;6237992;22;20191;-83
2022/09/30 01:03:26;;;;;;;9.60;8.80;;;9.60;99.90;;;;;;6253996;22;20209;-83
2022/09/30 01:05:53;;;;;;;9.95;8.95;;;9.50;99.90;;;;;;6235110;22;20291;-82
2022/09/30 01:08:21;;;;;;;10.15;9.25;;;9.50;99.90;;;;;;6244196;22;20239;-82
2022/09/30 01:10:49;;;;;;;9.85;8.85;;;9.40;99.90;;;;;;6238294;23;20312;-82
2022/09/30 01:13:19;;;;;;;10.60;9.70;;;9.40;99.90;;;;;;6250132;22;20286;-82
2022/09/30 01:16:05;;;;;;;9.98;9.07;;;9.30;99.90;;;;;;6239664;22;20190;-82
2022/09/30 01:18:45;;;;;;;9.82;8.82;;;9.20;99.90;;;;;;6250763;22;20222;-82
2022/09/30 01:21:47;;;;;;;9.30;8.50;;;9.20;99.90;;;;;;6250728;22;20289;-82
2022/09/30 01:24:39;;;;;;;9.00;8.07;;;9.10;99.90;;;;;;6220446;22;20187;-83
2022/09/30 01:27:28;;;;;;;8.40;7.70;;;9.00;99.90;;;;;;6228363;22;20259;-83
2022/09/30 01:30:06;;;;;;;9.30;8.38;;;8.90;99.90;;;;;;6237784;22;20221;-82
2022/09/30 01:32:53;;;;;;;9.38;8.30;;;8.90;99.90;;;;;;6256069;22;20190;-82
2022/09/30 01:35:29;;;;;;;8.23;7.43;;;8.80;99.90;;;;;;6233807;22;20213;-82
2022/09/30 01:38:02;;;;;;;7.80;7.10;;;8.80;99.90;;;;;;6243183;22;20387;-83
2022/09/30 01:40:40;;;;;;;8.45;7.75;;;8.80;99.90;;;;;;6237835;22;20243;-82
2022/09/30 01:43:11;;;;;;;8.20;7.40;;;8.70;99.90;;;;;;6238753;22;20213;-83
2022/09/30 01:45:44;;;;;;;8.60;7.80;;;8.70;99.90;;;;;;6219367;22;20191;-82
2022/09/30 01:48:21;;;;;;;8.15;7.32;;;8.70;99.90;;;;;;6240334;22;20226;-82
2022/09/30 01:50:54;;;;;;;8.55;7.85;;;8.70;99.90;;;;;;6241408;22;20231;-82
2022/09/30 01:53:27;;;;;;;8.98;8.27;;;8.80;99.90;;;;;;6237352;22;20261;-82
2022/09/30 01:56:00;;;;;;;9.05;8.20;;;8.80;99.90;;;;;;6237769;22;20632;-82
2022/09/30 01:58:38;;;;;;;8.48;7.65;;;8.80;99.90;;;;;;6237176;22;20237;-83
2022/09/30 02:01:10;;;;;;;9.02;8.15;;;8.90;99.90;;;;;;6247238;22;20646;-82
2022/09/30 02:03:44;;;;;;;7.15;6.65;;;8.90;99.90;;;;;;6236481;22;20197;-82
2022/09/30 02:06:15;;;;;;;11.55;7.85;;;8.90;99.90;;;;;;6237048;22;20640;-83
2022/09/30 02:08:47;;;;;;;8.40;7.60;;;9.00;99.90;;;;;;6235253;22;20280;-83
2022/09/30 02:11:18;;;;;;;8.98;8.18;;;9.00;99.90;;;;;;6239620;22;20550;-82
2022/09/30 02:13:50;;;;;;;8.93;8.15;;;9.00;99.90;;;;;;6238598;22;20261;-82
2022/09/30 02:16:23;;;;;;;8.75;7.90;;;9.10;99.90;;;;;;6235195;22;20198;-82
2022/09/30 02:18:55;;;;;;;9.65;7.65;;;9.10;99.90;;;;;;6237228;22;20218;-82
2022/09/30 02:21:26;;;;;;;7.55;6.80;;;9.20;99.90;;;;;;6236230;22;20195;-83
2022/09/30 02:23:59;;;;;;;7.85;7.15;;;9.20;99.90;;;;;;6246449;22;20583;-83
2022/09/30 02:26:29;;;;;;;7.32;6.82;;;9.20;99.90;;;;;;6243327;22;20277;-82
2022/09/30 02:29:03;;;;;;;7.78;6.97;;;9.20;99.90;;;;;;6240184;23;20230;-82
2022/09/30 02:31:32;;;;;;;7.50;6.80;;;9.20;99.90;;;;;;6239450;22;20268;-82
2022/09/30 02:34:05;;;;;;;7.35;6.68;;;9.20;99.90;;;;;;6247794;22;20200;-82
2022/09/30 02:36:37;;;;;;;7.50;6.90;;;9.30;99.90;;;;;;6236503;22;20207;-82
2022/09/30 02:39:10;;;;;;;7.30;6.60;;;9.30;99.90;;;;;;6239086;22;20274;-83
2022/09/30 02:41:43;;;;;;;7.53;6.45;;;9.30;99.90;;;;;;6251637;22;20198;-82
2022/09/30 02:44:10;;;;;;;7.07;6.43;;;9.40;99.90;;;;;;6244969;22;20222;-83
2022/09/30 02:46:44;;;;;;;7.90;7.10;;;9.40;99.90;;;;;;6237680;22;20263;-83
2022/09/30 02:49:20;;;;;;;7.30;6.60;;;9.40;99.90;;;;;;6239493;22;20646;-83
2022/09/30 02:51:59;;;;;;;7.85;7.10;;;9.40;99.90;;;;;;6257590;22;20216;-83
2022/09/30 02:54:34;;;;;;;7.72;7.05;;;9.40;99.90;;;;;;6243566;22;20637;-84
2022/09/30 02:57:10;;;;;;;7.35;6.70;;;9.40;99.90;;;;;;6239534;22;20257;-83
2022/09/30 02:59:38;;;;;;;7.40;6.70;;;9.40;99.90;;;;;;6224714;22;20230;-82
2022/09/30 03:02:05;;;;;;;7.85;7.25;;;9.40;99.90;;;;;;6236914;22;20277;-83
2022/09/30 03:04:35;;;;;;;12.32;8.77;;;9.40;99.90;;;;;;6237822;22;20195;-82
2022/09/30 03:07:02;;;;;;;9.98;9.02;;;9.30;99.90;;;;;;6247358;22;20238;-82
2022/09/30 03:09:29;;;;;;;9.18;8.30;;;9.30;99.90;;;;;;6237577;22;20196;-83
2022/09/30 03:12:09;;;;;;;8.55;7.55;;;9.20;99.90;;;;;;6236804;22;20542;-82
2022/09/30 03:14:54;;;;;;;9.25;7.70;;;9.10;99.90;;;;;;6243376;22;20218;-82
2022/09/30 03:17:38;;;;;;;8.57;7.85;;;9.10;99.90;;;;;;6231887;22;20227;-83
2022/09/30 03:20:34;;;;;;;8.15;7.45;;;9.10;99.90;;;;;;6242351;22;20226;-83
2022/09/30 03:23:25;;;;;;;9.48;7.78;;;9.00;99.90;;;;;;6234673;22;20563;-83
2022/09/30 03:25:59;;;;;;;8.45;7.60;;;8.90;99.90;;;;;;6249128;22;20189;-82
2022/09/30 03:28:31;;;;;;;9.60;8.70;;;8.90;99.90;;;;;;6238275;22;20656;-83
2022/09/30 03:31:07;;;;;;;7.82;7.13;;;8.90;99.90;;;;;;6246498;22;20191;-82
2022/09/30 03:33:44;;;;;;;8.10;7.40;;;8.90;99.90;;;;;;6239060;23;20596;-82
2022/09/30 03:36:20;;;;;;;8.30;7.60;;;8.80;99.90;;;;;;6242347;22;20196;-82
2022/09/30 03:38:56;;;;;;;8.57;7.78;;;8.80;99.90;;;;;;6237265;22;20236;-82
2022/09/30 03:41:29;;;;;;;6.97;6.38;;;8.80;99.90;;;;;;6250367;22;20191;-82
2022/09/30 03:44:02;;;;;;;7.70;7.00;;;8.80;99.90;;;;;;6245936;22;20217;-82
2022/09/30 03:46:34;;;;;;;7.07;6.38;;;8.80;99.90;;;;;;6237226;22;20209;-82
2022/09/30 03:49:05;;;;;;;7.15;6.40;;;8.80;99.90;;;;;;6252192;22;20197;-82
2022/09/30 03:51:36;;;;;;;7.20;6.60;;;8.80;99.90;;;;;;6236629;22;20224;-82
2022/09/30 03:54:07;;;;;;;8.05;7.15;;;8.80;99.90;;;;;;6237330;22;20194;-83
2022/09/30 03:56:34;;;;;;;7.90;7.20;;;8.70;99.90;;;;;;6230892;22;20217;-82
2022/09/30 03:59:01;;;;;;;7.63;6.97;;;8.60;99.90;;;;;;6249590;22;20252;-82
2022/09/30 04:01:28;;;;;;;8.65;7.88;;;8.60;99.90;;;;;;6255489;22;20194;-82
2022/09/30 04:03:56;;;;;;;8.23;7.53;;;8.50;99.90;;;;;;6264766;22;20656;-83
2022/09/30 04:06:25;;;;;;;9.27;7.88;;;8.50;99.90;;;;;;6240901;22;20263;-83
2022/09/30 04:08:53;;;;;;;8.35;7.47;;;8.50;99.90;;;;;;6245457;22;20226;-82
2022/09/30 04:11:21;;;;;;;8.40;7.70;;;8.50;99.90;;;;;;6239054;22;20215;-83
2022/09/30 04:13:48;;;;;;;8.18;7.45;;;8.40;99.90;;;;;;6250954;22;20215;-82
2022/09/30 04:16:14;;;;;;;8.07;7.38;;;8.40;99.90;;;;;;6238405;22;20816;-83
2022/09/30 04:18:42;;;;;;;8.68;7.88;;;8.40;99.90;;;;;;6233815;22;21466;-81
2022/09/30 04:21:11;;;;;;;8.30;7.60;;;8.40;99.90;;;;;;6231155;22;20738;-80
2022/09/30 04:23:40;;;;;;;8.18;7.47;;;8.40;99.90;;;;;;6227627;22;20185;-83
2022/09/30 04:26:12;;;;;;;8.45;7.60;;;8.40;99.90;;;;;;6227515;22;20230;-82
2022/09/30 04:28:39;;;;;;;8.20;7.53;;;8.40;99.90;;;;;;6236248;22;20192;-84
2022/09/30 04:31:07;;;;;;;8.00;7.30;;;8.40;99.90;;;;;;6238218;22;20217;-82
2022/09/30 04:33:34;;;;;;;8.35;7.55;;;8.40;99.90;;;;;;6235871;22;20193;-84
2022/09/30 04:36:01;;;;;;;8.75;7.80;;;8.30;99.90;;;;;;6236452;22;20211;-84
2022/09/30 04:38:29;;;;;;;8.73;7.88;;;8.20;99.90;;;;;;6235083;22;20272;-85
2022/09/30 04:40:57;;;;;;;8.50;7.70;;;8.20;99.90;;;;;;6228701;22;20598;-85
2022/09/30 04:43:27;;;;;;;8.70;8.00;;;8.10;99.90;;;;;;6236205;22;20201;-84
2022/09/30 04:45:54;;;;;;;8.73;7.82;;;8.10;99.90;;;;;;6234045;22;20213;-80
2022/09/30 04:48:22;;;;;;;8.25;7.45;;;8.10;99.90;;;;;;6233451;22;20276;-81
2022/09/30 04:50:49;;;;;;;8.18;7.45;;;8.00;99.90;;;;;;6236050;22;20210;-80
2022/09/30 04:53:18;;;;;;;9.77;8.10;;;7.90;99.90;;;;;;6218760;22;20238;-75
2022/09/30 04:55:45;;;;;;;9.15;8.20;;;7.80;99.90;;;;;;6225403;22;20212;-76
2022/09/30 04:58:14;;;;;;;9.23;8.48;;;7.80;99.90;;;;;;6234820;22;20233;-77
2022/09/30 05:00:42;;;;;;;8.90;8.20;;;7.80;99.90;;;;;;6222153;22;20214;-74
2022/09/30 05:03:09;;;;;;;9.95;8.98;;;7.80;99.90;;;;;;6224743;23;20272;-73
2022/09/30 05:05:36;;;;;;;9.45;8.55;;;7.80;99.90;;;;;;6227667;22;20205;-73
2022/09/30 05:08:04;;;;;;;9.98;9.05;;;8.00;99.90;;;;;;6236411;22;20204;-73
2022/09/30 05:10:32;;;;;;;9.63;8.63;;;7.80;99.90;;;;;;6232078;23;20513;-78
2022/09/30 05:12:59;;;;;;;9.82;8.93;;;7.70;99.90;;;;;;6236941;22;20321;-78
2022/09/30 05:15:26;;;;;;;13.85;9.23;;;7.60;99.90;;;;;;6234953;22;20211;-78
2022/09/30 05:17:55;;;;;;;20.10;9.10;;;7.60;99.90;;;;;;6251266;22;20226;-78
2022/09/30 05:20:22;;;;;;;8.60;7.90;;;7.50;99.90;;;;;;6236086;22;20181;-78
2022/09/30 05:22:54;;;;;;;11.90;8.95;;;7.40;99.90;;;;;;6243430;22;20185;-78
2022/09/30 05:25:22;;;;;;;9.68;8.77;;;7.40;99.90;;;;;;6243493;22;20225;-79
2022/09/30 05:27:49;;;;;;;9.40;8.60;;;7.40;99.90;;;;;;6246018;22;21580;-78
2022/09/30 05:30:16;;;;;;;15.35;9.48;;;7.40;99.90;;;;;;6237112;22;20232;-78
2022/09/30 05:32:43;;;;;;;25.13;10.20;;;7.50;99.90;;;;;;6233349;22;20185;-79
2022/09/30 05:35:12;;;;;;;26.98;10.63;;;7.40;99.90;;;;;;6231725;22;20263;-77
2022/09/30 05:37:39;;;;;;;58.53;12.15;;;7.30;99.90;;;;;;6229234;22;20201;-79
2022/09/30 05:40:08;;;;;;;27.83;11.02;;;7.30;99.90;;;;;;6245162;22;20180;-81
2022/09/30 05:42:35;;;;;;;13.73;9.80;;;7.30;99.90;;;;;;6239073;22;20666;-79
2022/09/30 05:45:02;;;;;;;13.00;9.27;;;7.20;99.90;;;;;;6238341;22;20267;-79
2022/09/30 05:47:29;;;;;;;22.83;10.45;;;7.20;99.90;;;;;;6237784;22;20200;-79
2022/09/30 05:49:56;;;;;;;38.40;11.50;;;7.20;99.90;;;;;;6239257;22;20190;-79
2022/09/30 05:52:27;;;;;;;23.00;10.15;;;7.20;99.90;;;;;;6243014;22;20187;-79
2022/09/30 05:54:55;;;;;;;15.38;7.60;;;7.20;99.90;;;;;;6237228;22;20184;-79
2022/09/30 05:57:22;;;;;;;11.50;7.93;;;7.20;99.90;;;;;;6234543;22;20197;-80
2022/09/30 05:59:49;;;;;;;7.07;6.53;;;7.20;99.90;;;;;;6232692;22;20212;-80
2022/09/30 06:02:16;;;;;;;7.70;7.07;;;7.20;99.90;;;;;;6233334;22;20231;-79
2022/09/30 06:04:44;;;;;;;7.55;6.85;;;7.30;99.90;;;;;;6233095;22;20264;-80
2022/09/30 06:07:12;;;;;;;9.20;8.50;;;7.50;99.90;;;;;;6236609;22;20287;-79
2022/09/30 06:09:40;;;;;;;10.05;9.15;;;7.80;99.90;;;;;;6232317;22;20204;-80
2022/09/30 06:12:08;;;;;;;9.95;8.95;;;8.10;99.90;;;;;;6233822;22;20189;-80
2022/09/30 06:14:35;;;;;;;8.77;8.07;;;8.40;99.90;;;;;;6239494;22;20187;-79
2022/09/30 06:17:02;;;;;;;8.95;8.25;;;8.70;99.90;;;;;;6236777;22;20202;-79
2022/09/30 06:19:29;;;;;;;8.85;8.00;;;8.90;99.90;;;;;;6246553;22;20208;-79
2022/09/30 06:21:57;;;;;;;7.80;7.10;;;9.10;99.90;;;;;;6236730;23;20189;-79
2022/09/30 06:24:24;;;;;;;8.35;7.57;;;9.40;99.90;;;;;;6234131;23;20184;-80
2022/09/30 06:26:53;;;;;;;9.05;8.00;;;9.60;99.90;;;;;;6236740;23;20700;-79
2022/09/30 06:29:20;;;;;;;8.75;7.95;;;9.70;99.90;;;;;;6234605;22;20271;-79
2022/09/30 06:31:47;;;;;;;8.82;8.02;;;9.90;99.90;;;;;;6235622;22;20215;-79
2022/09/30 06:34:14;;;;;;;8.95;8.27;;;10.00;99.90;;;;;;6239104;22;20256;-80
2022/09/30 06:36:41;;;;;;;8.73;7.93;;;10.30;99.90;;;;;;6224784;22;20212;-79
2022/09/30 06:39:08;;;;;;;11.20;9.60;;;10.50;99.90;;;;;;6232202;22;20218;-79
2022/09/30 06:41:42;;;;;;;8.50;7.80;;;10.50;99.90;;;;;;6236746;22;20272;-79
2022/09/30 06:44:11;;;;;;;9.32;8.52;;;10.30;99.90;;;;;;6240102;22;20714;-79
2022/09/30 06:46:38;;;;;;;8.73;7.82;;;10.00;99.90;;;;;;6238414;22;20208;-79
2022/09/30 06:49:05;;;;;;;7.95;7.13;;;9.50;99.90;;;;;;6237303;22;20195;-79
2022/09/30 06:51:32;;;;;;;8.27;7.57;;;9.40;99.90;;;;;;6224437;22;20924;-79
2022/09/30 06:54:00;;;;;;;7.40;6.75;;;9.60;99.90;;;;;;6237240;22;20191;-79
2022/09/30 06:56:27;;;;;;;9.93;7.55;;;9.80;99.90;;;;;;6232553;22;20226;-80
2022/09/30 06:58:55;;;;;;;9.02;8.23;;;9.80;99.90;;;;;;6248606;22;20674;-79
2022/09/30 07:01:24;;;;;;;10.85;9.73;;;9.90;99.90;;;;;;6232558;22;20272;-79
2022/09/30 07:03:56;;;;;;;9.00;8.10;;;9.80;99.90;;;;;;6230659;22;20562;-79
2022/09/30 07:06:25;;;;;;;10.57;9.57;;;9.40;99.90;;;;;;6232955;22;20227;-79
2022/09/30 07:08:54;;;;;;;12.93;8.88;;;9.20;99.90;;;;;;6233334;22;20654;-79
2022/09/30 07:11:21;;;;;;;13.68;10.98;;;8.90;99.90;;;;;;6236735;23;20629;-79
2022/09/30 07:13:48;;;;;;;63.97;13.27;;;8.70;99.90;;;;;;6237364;22;20350;-79
2022/09/30 07:16:17;;;;;;;11.35;10.25;;;8.60;99.90;;;;;;6233209;22;20205;-79
2022/09/30 07:18:46;;;;;;;19.00;10.82;;;8.60;99.90;;;;;;6237780;23;20209;-79
2022/09/30 07:21:15;;;;;;;14.88;11.20;;;8.50;99.90;;;;;;6233456;22;20197;-79
2022/09/30 07:23:46;;;;;;;26.27;13.63;;;8.40;99.90;;;;;;6226874;22;20181;-79
2022/09/30 07:26:14;;;;;;;14.00;11.82;;;8.40;99.90;;;;;;6239620;22;20703;-79
2022/09/30 07:28:42;;;;;;;13.45;12.05;;;8.50;99.90;;;;;;6243807;22;20635;-79
2022/09/30 07:31:11;;;;;;;27.45;11.18;;;8.60;99.90;;;;;;6235667;22;20190;-79
2022/09/30 07:33:39;;;;;;;18.38;12.88;;;8.70;99.90;;;;;;6216576;23;20189;-79
2022/09/30 07:36:09;;;;;;;24.70;13.50;;;8.40;99.90;;;;;;6237106;22;20716;-79
2022/09/30 07:38:39;;;;;;;43.38;13.73;;;8.50;99.90;;;;;;6235767;22;20212;-79
2022/09/30 07:41:09;;;;;;;14.93;13.50;;;8.30;99.90;;;;;;6239578;23;20260;-79
2022/09/30 07:43:39;;;;;;;16.40;13.48;;;8.10;99.90;;;;;;6230716;22;20583;-79
2022/09/30 07:46:07;;;;;;;14.05;12.70;;;8.20;99.90;;;;;;6232821;22;20225;-79
2022/09/30 07:48:46;;;;;;;14.52;13.23;;;8.30;99.90;;;;;;6228886;22;20260;-79
2022/09/30 07:51:17;;;;;;;14.00;12.70;;;8.40;99.90;;;;;;6228184;22;20191;-79
2022/09/30 07:53:46;;;;;;;15.55;13.13;;;8.50;99.90;;;;;;6235192;22;20189;-79
2022/09/30 07:56:15;;;;;;;13.15;12.02;;;8.60;99.90;;;;;;6237234;22;20553;-79
2022/09/30 07:58:43;;;;;;;16.55;14.07;;;8.70;99.90;;;;;;6235782;22;20206;-79
2022/09/30 08:01:10;;;;;;;14.95;13.57;;;8.70;99.90;;;;;;6251626;22;20225;-79
2022/09/30 08:03:40;;;;;;;14.90;13.60;;;8.60;99.90;;;;;;6234958;22;20720;-79
2022/09/30 08:06:10;;;;;;;15.88;14.40;;;8.50;99.90;;;;;;6236290;22;20201;-79
2022/09/30 08:08:40;;;;;;;14.75;13.35;;;8.60;99.90;;;;;;6235646;22;20216;-79
2022/09/30 08:11:07;;;;;;;15.23;13.73;;;8.70;99.90;;;;;;6215573;23;20293;-80
2022/09/30 08:13:34;;;;;;;14.85;13.50;;;8.90;99.90;;;;;;6234054;23;20216;-79
2022/09/30 08:16:02;;;;;;;15.60;14.13;;;9.00;99.90;;;;;;6237996;22;20228;-79
2022/09/30 08:18:29;;;;;;;14.40;13.10;;;9.20;99.90;;;;;;6231993;22;20215;-79
2022/09/30 08:20:56;;;;;;;14.90;13.60;;;9.30;99.90;;;;;;6235336;22;20611;-79
2022/09/30 08:23:23;;;;;;;15.88;14.48;;;9.40;99.90;;;;;;6237359;22;20252;-80
2022/09/30 08:25:51;;;;;;;16.83;15.20;;;9.40;99.90;;;;;;6236715;23;20218;-79
2022/09/30 08:28:18;;;;;;;20.38;15.88;;;9.40;99.90;;;;;;6238549;22;20251;-79
2022/09/30 08:30:45;;;;;;;16.83;15.05;;;9.50;99.90;;;;;;6238937;23;20241;-79
2022/09/30 08:33:13;;;;;;;15.43;14.10;;;9.50;99.90;;;;;;6234936;22;20248;-80
2022/09/30 08:35:40;;;;;;;15.73;14.25;;;9.60;99.90;;;;;;6237911;22;20254;-80
2022/09/30 08:38:07;;;;;;;15.50;14.20;;;9.80;99.90;;;;;;6244383;22;20291;-79
2022/09/30 08:40:49;;;;;;;15.75;14.23;;;10.00;99.90;;;;;;6228016;22;20287;-80
2022/09/30 08:43:27;;;;;;;14.75;13.45;;;10.30;99.90;;;;;;6238435;23;20199;-80
2022/09/30 08:46:01;;;;;;;15.25;13.95;;;10.50;99.90;;;;;;6237852;22;20283;-80
2022/09/30 08:48:44;;;;;;;13.73;12.52;;;10.90;99.90;;;;;;6238300;22;20195;-79
2022/09/30 08:51:27;;;;;;;14.27;13.07;;;11.40;99.90;;;;;;6247507;22;20192;-80
2022/09/30 08:53:57;;;;;;;13.73;12.60;;;11.70;99.90;;;;;;6242006;22;20267;-80
2022/09/30 08:56:27;;;;;;;12.80;11.70;;;12.00;99.90;;;;;;6228049;22;20201;-80
2022/09/30 08:59:01;;;;;;;12.60;11.50;;;12.50;99.90;;;;;;6207883;22;20550;-80
2022/09/30 09:01:31;;;;;;;11.83;10.73;;;13.20;99.90;;;;;;6214100;22;20503;-81
2022/09/30 09:04:00;;;;;;;11.53;10.63;;;13.90;99.90;;;;;;6223339;22;21022;-82
2022/09/30 09:06:33;;;;;;;11.13;10.23;;;14.70;99.90;;;;;;6217763;22;20454;-82
2022/09/30 09:09:15;;;;;;;11.47;10.57;;;15.70;99.90;;;;;;6232747;22;20461;-84
2022/09/30 09:11:55;;;;;;;10.23;9.43;;;16.70;99.90;;;;;;6224756;22;20427;-81
2022/09/30 09:14:35;;;;;;;10.97;10.17;;;17.80;99.90;;;;;;6236465;22;20473;-83
2022/09/30 09:17:12;;;;;;;11.23;10.30;;;18.60;99.90;;;;;;6229788;22;20534;-81
2022/09/30 09:19:47;;;;;;;11.00;10.20;;;18.60;99.90;;;;;;6227005;22;20556;-81
2022/09/30 09:22:14;;;;;;;11.23;10.33;;;18.80;99.90;;;;;;6234614;22;20957;-80
2022/09/30 09:24:46;;;;;;;11.70;10.80;;;18.90;99.90;;;;;;6217052;22;20431;-78
2022/09/30 09:27:19;;;;;;;12.30;11.30;;;18.90;99.90;;;;;;6234759;22;20796;-79
2022/09/30 09:30:00;;;;;;;11.10;10.13;;;19.10;99.90;;;;;;6237660;23;20441;-79
2022/09/30 09:32:28;;;;;;;11.03;10.13;;;18.90;99.90;;;;;;6228018;22;20438;-79
2022/09/30 09:35:00;;;;;;;11.03;10.13;;;18.70;99.90;;;;;;6237117;23;20489;-80
2022/09/30 09:40:33;;;;;;;11.20;10.20;;;18.60;99.90;;;;;;6236005;22;20540;-79
2022/09/30 09:43:11;;;;;;;10.73;9.93;;;18.50;99.90;;;;;;6230093;22;20979;-80
2022/09/30 09:45:49;;;;;;;9.87;9.17;;;18.60;99.90;;;;;;6223674;22;20451;-81
2022/09/30 09:48:16;;;;;;;10.30;9.40;;;19.00;99.90;;;;;;6237888;22;20429;-80
2022/09/30 09:50:55;;;;;;;11.03;10.13;;;19.60;99.90;;;;;;6222095;23;21284;-80
2022/09/30 09:53:47;;;;;;;11.00;10.10;;;20.20;99.90;;;;;;6217965;22;20431;-81
2022/09/30 09:56:18;;;;;;;10.93;10.13;;;20.70;99.90;;;;;;6236331;22;20818;-81
2022/09/30 09:59:04;;;;;;;9.43;8.63;;;20.90;99.90;;;;;;6239470;22;20426;-81
2022/09/30 10:01:33;;;;;;;10.13;9.43;;;20.50;99.90;;;;;;6236935;22;22184;-81
2022/09/30 10:04:14;;;;;;;10.17;9.37;;;20.50;99.90;;;;;;6237160;22;20531;-80
2022/09/30 10:06:51;;;;;;;9.73;8.93;;;20.10;99.90;;;;;;6230115;22;20454;-80
2022/09/30 10:09:32;;;;;;;10.63;9.73;;;20.10;99.90;;;;;;6234520;22;20435;-81
2022/09/30 10:12:27;;;;;;;8.87;8.17;;;20.20;99.90;;;;;;6229501;22;20500;-80
2022/09/30 10:15:03;;;;;;;9.00;8.20;;;20.40;99.90;;;;;;6201633;22;20464;-80
2022/09/30 10:17:34;;;;;;;8.43;7.83;;;20.10;99.90;;;;;;6237609;22;20425;-81
2022/09/30 10:20:06;;;;;;;8.27;7.57;;;20.10;99.90;;;;;;6221624;23;20509;-80
2022/09/30 10:22:34;;;;;;;6.60;6.20;;;20.30;99.90;;;;;;6237156;23;20924;-78
2022/09/30 10:25:18;;;;;;;7.17;6.67;;;20.30;99.90;;;;;;6236341;22;20468;-80
2022/09/30 10:27:55;;;;;;;6.10;5.67;;;20.50;99.90;;;;;;6236423;23;20444;-81
2022/09/30 10:30:35;;;;;;;6.37;5.87;;;20.80;99.90;;;;;;6232122;23;20429;-77
2022/09/30 10:33:12;;;;;;;6.33;5.80;;;20.60;99.90;;;;;;6224274;22;20440;-80
2022/09/30 10:35:52;;;;;;;4.93;4.63;;;20.30;99.90;;;;;;6219363;23;21249;-80
2022/09/30 10:38:19;;;;;;;5.40;4.90;;;19.30;99.90;;;;;;6219605;22;20451;-81
2022/09/30 10:40:49;;;;;;;6.20;5.60;;;19.60;99.90;;;;;;6221618;22;20460;-80
2022/09/30 10:43:25;;;;;;;6.23;5.80;;;19.90;99.90;;;;;;6218430;22;20451;-80
2022/09/30 10:45:53;;;;;;;5.90;5.50;;;20.30;99.90;;;;;;6229104;22;20457;-80
2022/09/30 10:48:25;;;;;;;5.97;5.57;;;20.70;99.90;;;;;;6235096;22;20429;-80
2022/09/30 10:50:53;;;;;;;6.40;5.93;;;20.60;99.90;;;;;;6227666;23;20435;-80
2022/09/30 10:53:24;;;;;;;6.93;6.33;;;20.70;99.90;;;;;;6233952;22;20461;-81
2022/09/30 10:55:52;;;;;;;5.93;5.20;;;20.70;99.90;;;;;;6234708;22;20532;-81
2022/09/30 10:58:34;;;;;;;4.67;4.37;;;20.90;99.90;;;;;;6240970;22;20476;-80
2022/09/30 11:01:11;;;;;;;4.37;4.07;;;20.80;99.50;;;;;;6235223;22;20475;-80
2022/09/30 11:03:58;;;;;;;5.23;4.80;;;20.20;99.10;;;;;;6232999;22;20472;-80
2022/09/30 11:06:28;;;;;;;5.90;5.50;;;20.30;99.80;;;;;;6223916;22;20512;-80
2022/09/30 11:08:59;;;;;;;6.27;5.77;;;20.50;99.80;;;;;;6232727;22;20579;-80
2022/09/30 11:11:34;;;;;;;5.37;5.00;;;20.60;99.90;;;;;;6232126;23;20509;-80
2022/09/30 11:14:15;;;;;;;5.43;4.93;;;20.70;99.90;;;;;;6225346;22;20493;-80
2022/09/30 11:16:51;;;;;;;6.07;5.10;;;20.80;99.80;;;;;;6233949;23;20489;-80
2022/09/30 11:19:26;;;;;;;5.37;4.63;;;21.20;98.40;;;;;;6238237;22;20457;-81
2022/09/30 11:21:57;;;;;;;4.30;4.00;;;21.20;97.60;;;;;;6236440;23;20437;-80
2022/09/30 11:24:31;;;;;;;4.63;4.23;;;21.10;97.80;;;;;;6233624;22;20477;-80
2022/09/30 11:27:10;;;;;;;4.50;4.13;;;21.20;97.40;;;;;;6235219;23;20475;-80
2022/09/30 11:29:56;;;;;;;4.90;4.03;;;21.30;95.40;;;;;;6223358;22;20497;-80
2022/09/30 11:32:40;;;;;;;6.27;4.60;;;21.50;96.10;;;;;;6229850;23;20556;-81
2022/09/30 11:35:28;;;;;;;5.90;4.23;;;22.10;95.20;;;;;;6240019;22;20490;-80
2022/09/30 11:38:14;;;;;;;4.23;3.80;;;22.10;95.50;;;;;;6240011;22;20426;-81
2022/09/30 11:40:50;;;;;;;3.93;3.40;;;22.60;94.90;;;;;;6233494;22;20461;-81
2022/09/30 11:43:30;;;;;;;3.80;3.50;;;23.40;93.50;;;;;;6221241;23;20472;-81
2022/09/30 11:46:20;;;;;;;4.00;3.70;;;24.10;92.80;;;;;;6220481;22;20485;-80
2022/09/30 11:49:04;;;;;;;4.93;4.43;;;24.80;90.10;;;;;;6235756;23;20429;-81
2022/09/30 11:51:44;;;;;;;3.73;3.43;;;24.90;85.80;;;;;;6214188;23;20439;-81
2022/09/30 11:54:25;;;;;;;3.13;2.83;;;24.70;85.80;;;;;;6228965;22;20853;-80
2022/09/30 11:56:59;;;;;;;2.87;2.67;;;24.80;86.50;;;;;;6225163;22;20495;-82
2022/09/30 11:59:29;;;;;;;2.97;2.77;;;24.90;83.80;;;;;;6217773;22;20465;-82
2022/09/30 12:02:00;;;;;;;4.00;2.70;;;25.00;80.00;;;;;;6226940;22;20569;-78
2022/09/30 12:04:32;;;;;;;2.50;2.30;;;25.10;80.70;;;;;;6236064;22;20438;-81
2022/09/30 12:07:05;;;;;;;2.50;2.30;;;25.30;79.60;;;;;;6236812;22;20461;-83
2022/09/30 12:09:36;;;;;;;2.80;2.17;;;25.30;78.20;;;;;;6237738;22;20906;-83
2022/09/30 12:12:08;;;;;;;2.30;2.00;;;24.80;78.00;;;;;;6238710;22;20520;-79
2022/09/30 12:14:41;;;;;;;2.40;2.20;;;24.00;79.50;;;;;;6234072;22;20932;-77
2022/09/30 12:17:18;;;;;;;2.87;2.20;;;23.30;78.20;;;;;;6225003;22;20464;-77
2022/09/30 12:19:49;;;;;;;2.47;1.77;;;23.20;79.30;;;;;;6238072;22;20461;-78
2022/09/30 12:22:24;;;;;;;1.63;1.53;;;23.20;78.70;;;;;;6234179;22;20430;-77
2022/09/30 12:24:50;;;;;;;2.73;2.27;;;23.30;77.40;;;;;;6237545;22;21250;-78
2022/09/30 12:27:23;;;;;;;2.30;2.20;;;23.50;76.10;;;;;;6227949;22;20851;-80
2022/09/30 12:33:23;;;;;;;2.03;1.90;;;22.80;79.20;;;;;;6182790;22;20950;-78
2022/09/30 12:36:22;;;;;;;2.20;2.00;;;23.30;79.60;;;;;;6225766;22;20449;-78
2022/09/30 12:39:15;;;;;;;2.83;1.73;;;23.60;76.70;;;;;;6212057;23;20431;-79
2022/09/30 12:41:55;;;;;;;2.00;1.90;;;23.80;77.60;;;;;;6200532;23;20956;-77
2022/09/30 12:44:44;;;;;;;1.73;1.63;;;23.60;75.60;;;;;;6230966;22;20465;-80
2022/09/30 12:47:26;;;;;;;1.73;1.63;;;23.60;74.40;;;;;;6231609;23;20453;-80
2022/09/30 12:49:57;;;;;;;2.17;1.87;;;23.50;71.80;;;;;;6236264;23;20434;-79
2022/09/30 12:52:25;;;;;;;2.67;1.47;;;23.00;71.60;;;;;;6208260;23;20434;-79
2022/09/30 12:54:56;;;;;;;2.00;1.60;;;22.80;74.00;;;;;;6229454;22;20508;-80
2022/09/30 12:57:27;;;;;;;2.33;1.40;;;23.10;74.40;;;;;;6229618;23;20445;-79
2022/09/30 13:00:01;;;;;;;1.87;1.27;;;23.30;72.30;;;;;;6234864;22;20434;-80
2022/09/30 13:02:34;;;;;;;4.07;1.87;;;23.60;71.70;;;;;;6233675;23;20920;-80
2022/09/30 13:05:45;;;;;;;2.03;1.60;;;24.10;72.50;;;;;;6229869;22;20457;-79
2022/09/30 13:08:24;;;;;;;2.07;1.43;;;24.40;71.80;;;;;;6215748;22;20486;-79
2022/09/30 13:10:58;;;;;;;1.83;1.30;;;23.90;71.00;;;;;;6237266;22;20988;-79
2022/09/30 13:13:30;;;;;;;2.43;1.70;;;23.40;71.70;;;;;;6231511;23;20508;-78
2022/09/30 13:16:02;;;;;;;1.57;1.47;;;22.90;72.90;;;;;;6235904;22;20454;-79
2022/09/30 13:19:01;;;;;;;2.00;1.37;;;22.40;71.80;;;;;;6231640;22;20442;-79
2022/09/30 13:21:28;;;;;;;1.97;1.67;;;21.80;73.10;;;;;;6224615;22;20457;-78